sensor_id;sensor_type;location;lat;lon;timestamp;pressure;altitude;pressure_sealevel;temperature;humidity
41202;BME280;26936;50.524;8.684;2023-06-22T00:01:16;99528.91;;;20.16;100.00
41202;BME280;26936;50.524;8.684;2023-06-22T00:03:41;99516.38;;;20.13;100.00
41202;BME280;26936;50.524;8.684;2023-06-22T00:06:07;99505.72;;;20.14;100.00
41202;BME280;26936;50.524;8.684;2023-06-22T00:08:32;99460.22;;;20.05;100.00
41202;BME280;26936;50.524;8.684;2023-06-22T00:10:57;99430.56;;;20.02;100.00
41202;BME280;26936;50.524;8.684;2023-06-22T00:13:23;99398.06;;;19.94;100.00
41202;BME280;26936;50.524;8.684;2023-06-22T00:15:48;99406.38;;;19.92;100.00
41202;BME280;26936;50.524;8.684;2023-06-22T00:18:13;99404.84;;;20.02;100.00
41202;BME280;26936;50.524;8.684;2023-06-22T00:20:39;99420.72;;;20.09;100.00
41202;BME280;26936;50.524;8.684;2023-06-22T00:23:06;99432.16;;;20.09;100.00
41202;BME280;26936;50.524;8.684;2023-06-22T00:25:37;99438.41;;;20.13;100.00
41202;BME280;26936;50.524;8.684;2023-06-22T00:28:05;99452.22;;;20.20;100.00
41202;BME280;26936;50.524;8.684;2023-06-22T00:30:31;99451.97;;;20.23;100.00
41202;BME280;26936;50.524;8.684;2023-06-22T00:32:57;99450.94;;;20.27;100.00
41202;BME280;26936;50.524;8.684;2023-06-22T00:35:23;99448.84;;;20.27;100.00
41202;BME280;26936;50.524;8.684;2023-06-22T00:37:57;99460.31;;;20.33;100.00
41202;BME280;26936;50.524;8.684;2023-06-22T00:40:29;99467.59;;;20.39;100.00
41202;BME280;26936;50.524;8.684;2023-06-22T00:42:54;99487.63;;;20.39;100.00
41202;BME280;26936;50.524;8.684;2023-06-22T00:45:20;99488.94;;;20.44;100.00
41202;BME280;26936;50.524;8.684;2023-06-22T00:47:48;99500.38;;;20.44;100.00
41202;BME280;26936;50.524;8.684;2023-06-22T00:50:18;99504.03;;;20.44;100.00
41202;BME280;26936;50.524;8.684;2023-06-22T00:52:52;99502.19;;;20.47;100.00
41202;BME280;26936;50.524;8.684;2023-06-22T00:55:20;99507.41;;;20.48;100.00
41202;BME280;26936;50.524;8.684;2023-06-22T00:57:46;99506.38;;;20.46;100.00
41202;BME280;26936;50.524;8.684;2023-06-22T01:00:12;99501.16;;;20.39;100.00
41202;BME280;26936;50.524;8.684;2023-06-22T01:02:45;99498.31;;;20.44;100.00
41202;BME280;26936;50.524;8.684;2023-06-22T01:05:14;99514.16;;;20.45;100.00
41202;BME280;26936;50.524;8.684;2023-06-22T01:10:40;99516.19;;;20.28;100.00
41202;BME280;26936;50.524;8.684;2023-06-22T01:13:35;99520.34;;;20.27;100.00
41202;BME280;26936;50.524;8.684;2023-06-22T01:16:08;99522.94;;;20.25;100.00
41202;BME280;26936;50.524;8.684;2023-06-22T01:18:36;99540.34;;;20.21;100.00
41202;BME280;26936;50.524;8.684;2023-06-22T01:21:04;99545.03;;;20.19;100.00
41202;BME280;26936;50.524;8.684;2023-06-22T01:24:18;99555.44;;;20.22;100.00
41202;BME280;26936;50.524;8.684;2023-06-22T01:26:52;99567.91;;;20.19;100.00
41202;BME280;26936;50.524;8.684;2023-06-22T01:29:21;99575.06;;;20.03;100.00
41202;BME280;26936;50.524;8.684;2023-06-22T01:31:47;99583.41;;;20.01;100.00
41202;BME280;26936;50.524;8.684;2023-06-22T01:34:13;99583.38;;;19.96;100.00
41202;BME280;26936;50.524;8.684;2023-06-22T01:36:40;99590.06;;;19.87;100.00
41202;BME280;26936;50.524;8.684;2023-06-22T01:39:05;99587.72;;;19.86;100.00
41202;BME280;26936;50.524;8.684;2023-06-22T01:41:35;99590.59;;;19.86;100.00
41202;BME280;26936;50.524;8.684;2023-06-22T01:44:01;99595.56;;;19.91;100.00
41202;BME280;26936;50.524;8.684;2023-06-22T01:46:28;99586.19;;;19.90;100.00
41202;BME280;26936;50.524;8.684;2023-06-22T01:48:55;99579.75;;;20.01;100.00
41202;BME280;26936;50.524;8.684;2023-06-22T01:51:20;99569.13;;;20.07;100.00
41202;BME280;26936;50.524;8.684;2023-06-22T01:53:46;99564.34;;;19.87;100.00
41202;BME280;26936;50.524;8.684;2023-06-22T01:56:12;99555.25;;;19.83;100.00
41202;BME280;26936;50.524;8.684;2023-06-22T01:58:59;99535.44;;;19.74;100.00
41202;BME280;26936;50.524;8.684;2023-06-22T02:01:30;99528.41;;;19.70;100.00
41202;BME280;26936;50.524;8.684;2023-06-22T02:04:06;99519.81;;;19.64;100.00
41202;BME280;26936;50.524;8.684;2023-06-22T02:06:36;99510.47;;;19.69;100.00
41202;BME280;26936;50.524;8.684;2023-06-22T02:09:07;99523.50;;;19.70;100.00
41202;BME280;26936;50.524;8.684;2023-06-22T02:11:34;99523.50;;;19.70;100.00
41202;BME280;26936;50.524;8.684;2023-06-22T02:18:54;99510.97;;;19.62;100.00
41202;BME280;26936;50.524;8.684;2023-06-22T02:21:20;99496.69;;;19.62;100.00
41202;BME280;26936;50.524;8.684;2023-06-22T02:23:46;99499.00;;;19.58;100.00
41202;BME280;26936;50.524;8.684;2023-06-22T02:26:12;99504.47;;;19.62;100.00
41202;BME280;26936;50.524;8.684;2023-06-22T02:28:37;99515.38;;;19.63;100.00
41202;BME280;26936;50.524;8.684;2023-06-22T02:31:03;99520.59;;;19.65;100.00
41202;BME280;26936;50.524;8.684;2023-06-22T02:33:28;99514.59;;;19.63;100.00
41202;BME280;26936;50.524;8.684;2023-06-22T02:35:54;99502.41;;;19.62;100.00
41202;BME280;26936;50.524;8.684;2023-06-22T02:38:19;99490.72;;;19.60;100.00
41202;BME280;26936;50.524;8.684;2023-06-22T02:40:45;99485.50;;;19.64;100.00
41202;BME280;26936;50.524;8.684;2023-06-22T02:43:11;99474.09;;;19.64;100.00
41202;BME280;26936;50.524;8.684;2023-06-22T02:45:36;99454.59;;;19.63;100.00
41202;BME280;26936;50.524;8.684;2023-06-22T02:48:01;99433.28;;;19.58;100.00
41202;BME280;26936;50.524;8.684;2023-06-22T02:50:26;99448.59;;;19.55;100.00
41202;BME280;26936;50.524;8.684;2023-06-22T02:52:52;99466.78;;;19.58;100.00
41202;BME280;26936;50.524;8.684;2023-06-22T02:55:17;99469.91;;;19.60;100.00
41202;BME280;26936;50.524;8.684;2023-06-22T02:57:42;99459.56;;;19.62;100.00
41202;BME280;26936;50.524;8.684;2023-06-22T03:00:10;99461.38;;;19.65;100.00
41202;BME280;26936;50.524;8.684;2023-06-22T03:02:46;99465.56;;;19.70;100.00
41202;BME280;26936;50.524;8.684;2023-06-22T03:05:11;99469.47;;;19.72;100.00
41202;BME280;26936;50.524;8.684;2023-06-22T03:07:40;99476.22;;;19.75;100.00
41202;BME280;26936;50.524;8.684;2023-06-22T03:10:07;99476.75;;;19.73;100.00
41202;BME280;26936;50.524;8.684;2023-06-22T03:12:32;99471.81;;;19.74;100.00
41202;BME280;26936;50.524;8.684;2023-06-22T03:14:57;99459.34;;;19.77;100.00
41202;BME280;26936;50.524;8.684;2023-06-22T03:17:23;99464.00;;;19.74;100.00
41202;BME280;26936;50.524;8.684;2023-06-22T03:19:48;99470.00;;;19.76;100.00
41202;BME280;26936;50.524;8.684;2023-06-22T03:22:13;99470.00;;;19.76;100.00
41202;BME280;26936;50.524;8.684;2023-06-22T03:24:40;99461.66;;;19.73;100.00
41202;BME280;26936;50.524;8.684;2023-06-22T03:27:05;99451.50;;;19.66;100.00
41202;BME280;26936;50.524;8.684;2023-06-22T03:29:31;99446.06;;;19.68;100.00
41202;BME280;26936;50.524;8.684;2023-06-22T03:31:56;99442.16;;;19.66;100.00
41202;BME280;26936;50.524;8.684;2023-06-22T03:34:21;99437.22;;;19.61;100.00
41202;BME280;26936;50.524;8.684;2023-06-22T03:36:46;99443.94;;;19.58;100.00
41202;BME280;26936;50.524;8.684;2023-06-22T03:39:12;99437.97;;;19.56;100.00
41202;BME280;26936;50.524;8.684;2023-06-22T03:41:37;99437.19;;;19.55;100.00
41202;BME280;26936;50.524;8.684;2023-06-22T03:44:03;99442.09;;;19.55;100.00
41202;BME280;26936;50.524;8.684;2023-06-22T03:46:28;99447.28;;;19.51;100.00
41202;BME280;26936;50.524;8.684;2023-06-22T03:48:54;99446.75;;;19.47;100.00
41202;BME280;26936;50.524;8.684;2023-06-22T03:51:19;99439.72;;;19.42;100.00
41202;BME280;26936;50.524;8.684;2023-06-22T03:53:44;99439.72;;;19.42;100.00
41202;BME280;26936;50.524;8.684;2023-06-22T03:56:09;99443.88;;;19.41;100.00
41202;BME280;26936;50.524;8.684;2023-06-22T03:58:35;99446.72;;;19.41;100.00
41202;BME280;26936;50.524;8.684;2023-06-22T04:01:01;99455.81;;;19.45;100.00
41202;BME280;26936;50.524;8.684;2023-06-22T04:03:26;99456.63;;;19.46;100.00
41202;BME280;26936;50.524;8.684;2023-06-22T04:05:52;99462.84;;;19.50;100.00
41202;BME280;26936;50.524;8.684;2023-06-22T04:08:17;99449.13;;;19.54;100.00
41202;BME280;26936;50.524;8.684;2023-06-22T04:10:43;99458.47;;;19.54;100.00
41202;BME280;26936;50.524;8.684;2023-06-22T04:13:08;99455.34;;;19.58;100.00
41202;BME280;26936;50.524;8.684;2023-06-22T04:15:34;99454.09;;;19.59;100.00
41202;BME280;26936;50.524;8.684;2023-06-22T04:17:59;99465.28;;;19.62;100.00
41202;BME280;26936;50.524;8.684;2023-06-22T04:20:24;99460.81;;;19.61;100.00
41202;BME280;26936;50.524;8.684;2023-06-22T04:22:53;99463.22;;;19.68;100.00
41202;BME280;26936;50.524;8.684;2023-06-22T04:25:19;99467.09;;;19.71;100.00
41202;BME280;26936;50.524;8.684;2023-06-22T04:27:44;99465.06;;;19.77;100.00
41202;BME280;26936;50.524;8.684;2023-06-22T04:30:10;99469.22;;;19.81;100.00
41202;BME280;26936;50.524;8.684;2023-06-22T04:32:35;99467.41;;;19.84;100.00
41202;BME280;26936;50.524;8.684;2023-06-22T04:35:02;99466.94;;;19.85;100.00
41202;BME280;26936;50.524;8.684;2023-06-22T04:37:29;99466.13;;;19.90;100.00
41202;BME280;26936;50.524;8.684;2023-06-22T04:39:54;99464.34;;;19.93;100.00
41202;BME280;26936;50.524;8.684;2023-06-22T04:42:20;99463.56;;;19.98;100.00
41202;BME280;26936;50.524;8.684;2023-06-22T04:44:45;99462.78;;;19.97;100.00
41202;BME280;26936;50.524;8.684;2023-06-22T04:47:10;99463.34;;;20.01;100.00
41202;BME280;26936;50.524;8.684;2023-06-22T04:49:36;99456.06;;;20.06;100.00
41202;BME280;26936;50.524;8.684;2023-06-22T04:52:04;99465.69;;;20.03;100.00
41202;BME280;26936;50.524;8.684;2023-06-22T04:54:30;99470.88;;;20.10;100.00
41202;BME280;26936;50.524;8.684;2023-06-22T04:56:58;99476.88;;;20.12;100.00
41202;BME280;26936;50.524;8.684;2023-06-22T04:59:24;99476.66;;;20.15;100.00
41202;BME280;26936;50.524;8.684;2023-06-22T05:01:57;99473.53;;;20.19;100.00
41202;BME280;26936;50.524;8.684;2023-06-22T05:04:23;99479.78;;;20.17;100.00
41202;BME280;26936;50.524;8.684;2023-06-22T05:06:50;99481.63;;;20.26;100.00
41202;BME280;26936;50.524;8.684;2023-06-22T05:09:15;99470.44;;;20.28;100.00
41202;BME280;26936;50.524;8.684;2023-06-22T05:11:40;99473.56;;;20.36;100.00
41202;BME280;26936;50.524;8.684;2023-06-22T05:14:06;99456.66;;;20.43;100.00
41202;BME280;26936;50.524;8.684;2023-06-22T05:16:32;99452.50;;;20.50;100.00
41202;BME280;26936;50.524;8.684;2023-06-22T05:18:58;99461.91;;;20.56;100.00
41202;BME280;26936;50.524;8.684;2023-06-22T05:21:24;99466.84;;;20.66;100.00
41202;BME280;26936;50.524;8.684;2023-06-22T05:23:50;99466.31;;;20.73;100.00
41202;BME280;26936;50.524;8.684;2023-06-22T05:26:16;99462.69;;;20.78;100.00
41202;BME280;26936;50.524;8.684;2023-06-22T05:28:41;99465.00;;;20.85;100.00
41202;BME280;26936;50.524;8.684;2023-06-22T05:31:06;99458.50;;;20.96;100.00
41202;BME280;26936;50.524;8.684;2023-06-22T05:33:32;99469.72;;;21.10;100.00
41202;BME280;26936;50.524;8.684;2023-06-22T05:35:57;99463.41;;;21.34;100.00
41202;BME280;26936;50.524;8.684;2023-06-22T05:38:22;99464.41;;;21.53;100.00
41202;BME280;26936;50.524;8.684;2023-06-22T05:40:47;99467.00;;;21.57;100.00
41202;BME280;26936;50.524;8.684;2023-06-22T05:43:13;99472.41;;;21.77;100.00
41202;BME280;26936;50.524;8.684;2023-06-22T05:45:38;99461.63;;;21.99;100.00
41202;BME280;26936;50.524;8.684;2023-06-22T05:48:03;99459.06;;;21.85;100.00
41202;BME280;26936;50.524;8.684;2023-06-22T05:50:29;99459.38;;;21.81;100.00
41202;BME280;26936;50.524;8.684;2023-06-22T05:52:54;99463.78;;;21.88;100.00
41202;BME280;26936;50.524;8.684;2023-06-22T05:55:19;99460.06;;;21.98;100.00
41202;BME280;26936;50.524;8.684;2023-06-22T05:57:45;99461.34;;;22.03;100.00
41202;BME280;26936;50.524;8.684;2023-06-22T06:00:10;99451.38;;;22.15;100.00
41202;BME280;26936;50.524;8.684;2023-06-22T06:02:36;99455.47;;;22.25;100.00
41202;BME280;26936;50.524;8.684;2023-06-22T06:05:02;99447.50;;;22.47;100.00
41202;BME280;26936;50.524;8.684;2023-06-22T06:07:28;99450.81;;;22.92;100.00
41202;BME280;26936;50.524;8.684;2023-06-22T06:09:53;99443.03;;;23.41;100.00
41202;BME280;26936;50.524;8.684;2023-06-22T06:12:18;99450.47;;;23.73;100.00
41202;BME280;26936;50.524;8.684;2023-06-22T06:14:44;99461.81;;;24.08;96.84
41202;BME280;26936;50.524;8.684;2023-06-22T06:17:09;99462.38;;;24.26;94.05
41202;BME280;26936;50.524;8.684;2023-06-22T06:19:34;99460.78;;;24.43;95.29
41202;BME280;26936;50.524;8.684;2023-06-22T06:21:59;99460.78;;;24.62;92.63
41202;BME280;26936;50.524;8.684;2023-06-22T06:24:25;99450.00;;;24.62;91.78
41202;BME280;26936;50.524;8.684;2023-06-22T06:26:51;99445.09;;;24.57;95.11
41202;BME280;26936;50.524;8.684;2023-06-22T06:29:16;99459.38;;;24.68;93.68
41202;BME280;26936;50.524;8.684;2023-06-22T06:31:41;99461.09;;;24.90;93.32
41202;BME280;26936;50.524;8.684;2023-06-22T06:34:07;99453.41;;;25.24;91.44
41202;BME280;26936;50.524;8.684;2023-06-22T06:36:32;99445.25;;;25.67;89.45
41202;BME280;26936;50.524;8.684;2023-06-22T06:38:57;99441.91;;;26.15;85.97
41202;BME280;26936;50.524;8.684;2023-06-22T06:41:22;99430.41;;;26.56;82.74
41202;BME280;26936;50.524;8.684;2023-06-22T06:43:48;99439.91;;;26.98;81.09
41202;BME280;26936;50.524;8.684;2023-06-22T06:46:13;99435.44;;;27.38;79.11
41202;BME280;26936;50.524;8.684;2023-06-22T06:48:39;99435.44;;;28.02;76.80
41202;BME280;26936;50.524;8.684;2023-06-22T06:51:04;99431.88;;;28.24;74.44
41202;BME280;26936;50.524;8.684;2023-06-22T06:53:30;99438.16;;;28.51;71.29
41202;BME280;26936;50.524;8.684;2023-06-22T06:55:56;99434.88;;;28.54;73.76
41202;BME280;26936;50.524;8.684;2023-06-22T06:58:21;99426.44;;;29.01;71.01
41202;BME280;26936;50.524;8.684;2023-06-22T07:00:48;99432.81;;;28.77;71.62
41202;BME280;26936;50.524;8.684;2023-06-22T07:03:13;99428.38;;;29.06;70.32
41202;BME280;26936;50.524;8.684;2023-06-22T07:05:39;99424.50;;;29.34;69.90
41202;BME280;26936;50.524;8.684;2023-06-22T07:08:04;99429.53;;;29.56;69.31
41202;BME280;26936;50.524;8.684;2023-06-22T07:10:30;99427.03;;;29.30;66.19
41202;BME280;26936;50.524;8.684;2023-06-22T07:12:55;99425.47;;;29.44;69.57
41202;BME280;26936;50.524;8.684;2023-06-22T07:15:22;99417.53;;;29.52;66.94
41202;BME280;26936;50.524;8.684;2023-06-22T07:17:47;99417.25;;;29.95;67.09
41202;BME280;26936;50.524;8.684;2023-06-22T07:20:12;99405.19;;;30.06;66.58
41202;BME280;26936;50.524;8.684;2023-06-22T07:22:38;99397.75;;;29.81;65.81
41202;BME280;26936;50.524;8.684;2023-06-22T07:25:04;99403.38;;;30.18;65.77
41202;BME280;26936;50.524;8.684;2023-06-22T07:27:37;99406.28;;;30.18;65.11
41202;BME280;26936;50.524;8.684;2023-06-22T07:30:04;99409.31;;;30.68;63.54
41202;BME280;26936;50.524;8.684;2023-06-22T07:32:29;99403.72;;;30.94;63.65
41202;BME280;26936;50.524;8.684;2023-06-22T07:34:54;99395.22;;;30.89;61.88
41202;BME280;26936;50.524;8.684;2023-06-22T07:37:21;99398.06;;;31.21;62.05
41202;BME280;26936;50.524;8.684;2023-06-22T07:39:46;99394.28;;;31.28;60.83
41202;BME280;26936;50.524;8.684;2023-06-22T07:42:11;99394.63;;;31.15;60.52
41202;BME280;26936;50.524;8.684;2023-06-22T07:44:37;99401.16;;;31.23;60.80
41202;BME280;26936;50.524;8.684;2023-06-22T07:47:02;99400.44;;;31.73;59.94
41202;BME280;26936;50.524;8.684;2023-06-22T07:49:28;99392.84;;;31.95;58.31
41202;BME280;26936;50.524;8.684;2023-06-22T07:51:53;99392.34;;;32.33;56.98
41202;BME280;26936;50.524;8.684;2023-06-22T07:54:18;99397.50;;;32.25;57.54
41202;BME280;26936;50.524;8.684;2023-06-22T07:56:44;99397.50;;;32.42;56.00
41202;BME280;26936;50.524;8.684;2023-06-22T07:59:09;99391.56;;;32.32;57.16
41202;BME280;26936;50.524;8.684;2023-06-22T08:01:34;99384.56;;;32.62;56.45
41202;BME280;26936;50.524;8.684;2023-06-22T08:03:59;99384.72;;;32.64;55.96
41202;BME280;26936;50.524;8.684;2023-06-22T08:06:25;99373.41;;;32.68;55.79
41202;BME280;26936;50.524;8.684;2023-06-22T08:08:50;99373.53;;;32.70;56.93
41202;BME280;26936;50.524;8.684;2023-06-22T08:11:18;99360.06;;;32.21;56.25
41202;BME280;26936;50.524;8.684;2023-06-22T08:13:43;99352.03;;;32.65;54.23
41202;BME280;26936;50.524;8.684;2023-06-22T08:16:08;99349.06;;;32.82;53.74
41202;BME280;26936;50.524;8.684;2023-06-22T08:18:34;99346.13;;;32.82;53.99
41202;BME280;26936;50.524;8.684;2023-06-22T08:20:59;99344.22;;;33.04;54.53
41202;BME280;26936;50.524;8.684;2023-06-22T08:23:24;99345.97;;;33.26;53.23
41202;BME280;26936;50.524;8.684;2023-06-22T08:25:50;99348.03;;;33.62;53.22
41202;BME280;26936;50.524;8.684;2023-06-22T08:28:15;99335.38;;;33.40;50.42
41202;BME280;26936;50.524;8.684;2023-06-22T08:30:41;99330.97;;;33.49;49.91
41202;BME280;26936;50.524;8.684;2023-06-22T08:33:06;99342.50;;;33.66;50.57
41202;BME280;26936;50.524;8.684;2023-06-22T08:35:31;99343.84;;;33.27;50.93
41202;BME280;26936;50.524;8.684;2023-06-22T08:37:56;99332.97;;;33.56;50.91
41202;BME280;26936;50.524;8.684;2023-06-22T08:40:23;99329.44;;;33.57;52.13
41202;BME280;26936;50.524;8.684;2023-06-22T08:42:49;99321.22;;;33.37;49.96
41202;BME280;26936;50.524;8.684;2023-06-22T08:45:15;99318.44;;;33.10;50.87
41202;BME280;26936;50.524;8.684;2023-06-22T08:47:41;99317.59;;;33.46;50.17
41202;BME280;26936;50.524;8.684;2023-06-22T08:50:07;99308.19;;;33.76;50.34
41202;BME280;26936;50.524;8.684;2023-06-22T08:52:34;99313.44;;;34.06;49.34
41202;BME280;26936;50.524;8.684;2023-06-22T08:54:59;99309.09;;;34.07;50.65
41202;BME280;26936;50.524;8.684;2023-06-22T08:57:24;99313.16;;;34.52;48.90
41202;BME280;26936;50.524;8.684;2023-06-22T08:59:49;99312.38;;;34.51;49.48
41202;BME280;26936;50.524;8.684;2023-06-22T09:02:17;99310.94;;;34.12;49.40
41202;BME280;26936;50.524;8.684;2023-06-22T09:04:42;99296.44;;;34.23;48.79
41202;BME280;26936;50.524;8.684;2023-06-22T09:07:08;99300.22;;;33.38;48.59
41202;BME280;26936;50.524;8.684;2023-06-22T09:09:33;99296.66;;;33.78;49.78
41202;BME280;26936;50.524;8.684;2023-06-22T09:11:58;99296.63;;;34.16;48.44
41202;BME280;26936;50.524;8.684;2023-06-22T09:14:23;99290.72;;;34.45;47.61
41202;BME280;26936;50.524;8.684;2023-06-22T09:16:49;99293.31;;;33.53;47.68
41202;BME280;26936;50.524;8.684;2023-06-22T09:19:14;99291.25;;;34.12;47.51
41202;BME280;26936;50.524;8.684;2023-06-22T09:21:39;99291.75;;;33.90;47.00
41202;BME280;26936;50.524;8.684;2023-06-22T09:24:05;99294.81;;;33.73;50.10
41202;BME280;26936;50.524;8.684;2023-06-22T09:26:30;99286.38;;;33.86;48.91
41202;BME280;26936;50.524;8.684;2023-06-22T09:28:55;99277.44;;;34.03;49.33
41202;BME280;26936;50.524;8.684;2023-06-22T09:31:20;99280.69;;;33.88;47.81
41202;BME280;26936;50.524;8.684;2023-06-22T09:33:51;99278.09;;;33.64;49.42
41202;BME280;26936;50.524;8.684;2023-06-22T09:36:17;99279.91;;;33.78;48.59
41202;BME280;26936;50.524;8.684;2023-06-22T09:38:42;99279.88;;;34.07;47.68
41202;BME280;26936;50.524;8.684;2023-06-22T09:41:07;99273.34;;;33.59;47.17
41202;BME280;26936;50.524;8.684;2023-06-22T09:43:33;99269.16;;;32.59;50.82
41202;BME280;26936;50.524;8.684;2023-06-22T09:46:00;99256.72;;;32.22;52.28
41202;BME280;26936;50.524;8.684;2023-06-22T09:48:27;99249.28;;;32.12;53.02
41202;BME280;26936;50.524;8.684;2023-06-22T09:50:52;99251.28;;;31.65;55.05
41202;BME280;26936;50.524;8.684;2023-06-22T09:53:17;99238.22;;;31.83;53.75
41202;BME280;26936;50.524;8.684;2023-06-22T09:55:42;99238.66;;;31.80;53.99
41202;BME280;26936;50.524;8.684;2023-06-22T09:58:08;99238.44;;;31.68;56.13
41202;BME280;26936;50.524;8.684;2023-06-22T10:00:33;99233.91;;;32.02;55.11
41202;BME280;26936;50.524;8.684;2023-06-22T10:02:59;99234.66;;;32.02;55.05
41202;BME280;26936;50.524;8.684;2023-06-22T10:05:24;99227.56;;;32.22;52.58
41202;BME280;26936;50.524;8.684;2023-06-22T10:07:50;99239.44;;;32.34;52.60
41202;BME280;26936;50.524;8.684;2023-06-22T10:10:15;99234.13;;;32.49;52.88
41202;BME280;26936;50.524;8.684;2023-06-22T10:12:43;99226.38;;;32.80;52.17
41202;BME280;26936;50.524;8.684;2023-06-22T10:15:09;99223.69;;;32.46;54.22
41202;BME280;26936;50.524;8.684;2023-06-22T10:17:35;99231.41;;;31.71;55.31
41202;BME280;26936;50.524;8.684;2023-06-22T10:20:00;99219.84;;;31.37;56.27
41202;BME280;26936;50.524;8.684;2023-06-22T10:22:30;99225.19;;;31.58;56.17
41202;BME280;26936;50.524;8.684;2023-06-22T10:24:56;99213.75;;;31.26;55.84
41202;BME280;26936;50.524;8.684;2023-06-22T10:27:21;99205.78;;;31.09;56.30
41202;BME280;26936;50.524;8.684;2023-06-22T10:29:46;99190.88;;;31.22;56.47
41202;BME280;26936;50.524;8.684;2023-06-22T10:32:11;99176.59;;;31.17;54.70
41202;BME280;26936;50.524;8.684;2023-06-22T10:34:37;99181.56;;;31.67;55.32
41202;BME280;26936;50.524;8.684;2023-06-22T10:37:02;99174.13;;;31.83;53.38
41202;BME280;26936;50.524;8.684;2023-06-22T10:39:27;99169.75;;;32.28;53.80
41202;BME280;26936;50.524;8.684;2023-06-22T10:41:52;99172.06;;;32.30;52.89
41202;BME280;26936;50.524;8.684;2023-06-22T10:44:18;99176.72;;;32.52;50.75
41202;BME280;26936;50.524;8.684;2023-06-22T10:46:43;99163.88;;;32.55;50.93
41202;BME280;26936;50.524;8.684;2023-06-22T10:49:08;99154.91;;;32.34;49.31
41202;BME280;26936;50.524;8.684;2023-06-22T10:51:33;99155.63;;;32.25;50.00
41202;BME280;26936;50.524;8.684;2023-06-22T10:53:59;99150.66;;;32.63;49.41
41202;BME280;26936;50.524;8.684;2023-06-22T10:56:24;99146.69;;;32.68;48.70
41202;BME280;26936;50.524;8.684;2023-06-22T10:58:49;99145.78;;;32.56;50.26
41202;BME280;26936;50.524;8.684;2023-06-22T11:01:14;99134.56;;;32.72;49.58
41202;BME280;26936;50.524;8.684;2023-06-22T11:03:40;99132.88;;;32.69;49.33
41202;BME280;26936;50.524;8.684;2023-06-22T11:06:05;99140.06;;;32.58;49.23
41202;BME280;26936;50.524;8.684;2023-06-22T11:08:30;99140.41;;;32.07;51.11
41202;BME280;26936;50.524;8.684;2023-06-22T11:10:55;99120.53;;;31.87;50.67
41202;BME280;26936;50.524;8.684;2023-06-22T11:13:21;99120.81;;;32.17;50.78
41202;BME280;26936;50.524;8.684;2023-06-22T11:15:46;99107.53;;;31.88;50.21
41202;BME280;26936;50.524;8.684;2023-06-22T11:18:11;99121.78;;;31.93;49.20
41202;BME280;26936;50.524;8.684;2023-06-22T11:20:36;99107.53;;;31.61;51.09
41202;BME280;26936;50.524;8.684;2023-06-22T11:23:07;99111.44;;;31.83;50.54
41202;BME280;26936;50.524;8.684;2023-06-22T11:25:32;99095.47;;;32.10;48.71
41202;BME280;26936;50.524;8.684;2023-06-22T11:28:03;99098.59;;;32.31;49.73
41202;BME280;26936;50.524;8.684;2023-06-22T11:30:29;99090.13;;;32.26;47.86
41202;BME280;26936;50.524;8.684;2023-06-22T11:32:56;99083.03;;;32.10;47.15
41202;BME280;26936;50.524;8.684;2023-06-22T11:35:21;99069.53;;;32.05;49.05
41202;BME280;26936;50.524;8.684;2023-06-22T11:37:47;99059.53;;;31.89;48.54
41202;BME280;26936;50.524;8.684;2023-06-22T11:40:12;99053.66;;;31.79;47.67
41202;BME280;26936;50.524;8.684;2023-06-22T11:42:37;99048.16;;;31.83;49.75
41202;BME280;26936;50.524;8.684;2023-06-22T11:45:04;99045.47;;;31.95;48.28
41202;BME280;26936;50.524;8.684;2023-06-22T11:47:30;99042.19;;;31.45;46.77
41202;BME280;26936;50.524;8.684;2023-06-22T11:49:55;99042.31;;;31.37;48.21
41202;BME280;26936;50.524;8.684;2023-06-22T11:52:21;99034.84;;;31.44;48.59
41202;BME280;26936;50.524;8.684;2023-06-22T11:54:46;99038.44;;;31.61;47.61
41202;BME280;26936;50.524;8.684;2023-06-22T11:57:11;99030.31;;;32.06;48.02
41202;BME280;26936;50.524;8.684;2023-06-22T11:59:36;99025.63;;;31.83;47.59
41202;BME280;26936;50.524;8.684;2023-06-22T12:02:02;99029.44;;;31.76;47.29
41202;BME280;26936;50.524;8.684;2023-06-22T12:04:27;99033.75;;;31.85;47.65
41202;BME280;26936;50.524;8.684;2023-06-22T12:06:52;99031.63;;;31.86;47.75
41202;BME280;26936;50.524;8.684;2023-06-22T12:09:18;99042.06;;;31.89;48.23
41202;BME280;26936;50.524;8.684;2023-06-22T12:11:43;99038.00;;;31.74;47.30
41202;BME280;26936;50.524;8.684;2023-06-22T12:14:08;99029.50;;;31.50;46.89
41202;BME280;26936;50.524;8.684;2023-06-22T12:16:34;99030.75;;;31.56;46.08
41202;BME280;26936;50.524;8.684;2023-06-22T12:18:59;99027.84;;;31.66;46.25
41202;BME280;26936;50.524;8.684;2023-06-22T12:21:24;99036.00;;;31.77;46.44
41202;BME280;26936;50.524;8.684;2023-06-22T12:23:49;99036.59;;;31.66;47.30
41202;BME280;26936;50.524;8.684;2023-06-22T12:26:15;99019.72;;;31.55;47.10
41202;BME280;26936;50.524;8.684;2023-06-22T12:28:40;99026.09;;;31.44;47.66
41202;BME280;26936;50.524;8.684;2023-06-22T12:31:06;99024.31;;;31.58;48.73
41202;BME280;26936;50.524;8.684;2023-06-22T12:33:31;99016.88;;;31.83;47.82
41202;BME280;26936;50.524;8.684;2023-06-22T12:35:56;99009.56;;;31.92;48.07
41202;BME280;26936;50.524;8.684;2023-06-22T12:38:22;99002.41;;;32.03;47.36
41202;BME280;26936;50.524;8.684;2023-06-22T12:40:47;99004.69;;;32.14;48.43
41202;BME280;26936;50.524;8.684;2023-06-22T12:43:14;98996.41;;;32.29;48.21
41202;BME280;26936;50.524;8.684;2023-06-22T12:45:39;98983.25;;;32.47;47.59
41202;BME280;26936;50.524;8.684;2023-06-22T12:48:05;98985.56;;;32.49;47.21
41202;BME280;26936;50.524;8.684;2023-06-22T12:50:30;98982.31;;;32.07;48.07
41202;BME280;26936;50.524;8.684;2023-06-22T12:52:56;98980.31;;;32.09;48.97
41202;BME280;26936;50.524;8.684;2023-06-22T12:55:21;98976.97;;;32.32;48.15
41202;BME280;26936;50.524;8.684;2023-06-22T12:57:46;98975.13;;;32.08;47.35